x

South Nomad (46036) Wave Buoy

2:00pm - Tue 26th Jul 2016 All times are UTC.

  • Sig Wave height 3.9ft
  • Peak Period 9s
  • Wind
    11mph, 13mph gusts
  • Sea Temp 58°f
  • Air Temp 58°f
  • Sea Pressure 1024.7mb

More Historic Weather Station data

Upgrade to MSW Pro to gain access to the past 30 days of data for over 8000 Wavebouys and Weather Stations around the globe.

Join Pro

Comparision Forecast

View Surf forecast
   
Tue 07/26 2:00pm 4ft 9s 11 13 mph 1024.7mb 58f 58f
1:00pm 4.5ft 8s 9 11 mph 1024.3mb 58f 58f
12:00pm 4ft 8s 11 13 mph 1024.6mb 58f 58f
11:00am 4.5ft 10s 11 13 mph 1024.6mb 58f 58f
10:00am 4.5ft 10s 16 20 mph 1024.5mb 58f 58f
9:00am 4.5ft 8s 13 18 mph 1024.5mb 58f 58f
8:00am 4.5ft 10s 13 16 mph 1024.4mb 58f 58f
7:00am 4.5ft 10s 13 16 mph 1024.6mb 58f 58f
6:00am 4.5ft 10s 11 13 mph 1024.6mb 59f 58f
5:00am 4.5ft 10s 7 9 mph 1024.5mb 58f 59f
4:00am 5ft 9s 7 9 mph 1024.3mb 59f 58f
3:00am 5ft 9s 11 13 mph 1024.1mb 59f 58f
2:00am 5ft 9s 11 13 mph 1024.2mb 59f 58f
1:00am 5ft 10s 11 13 mph 1024.2mb 59f 58f
12:00am 5ft 9s 13 16 mph 1024.1mb 58f 58f
Mon 07/25 11:00pm 5ft 10s 11 13 mph 1024.1mb 58f 58f
10:00pm 5.5ft 10s 13 16 mph 1024.2mb 58f 58f
9:00pm 5.5ft 10s 13 16 mph 1024.2mb 58f 58f
8:00pm 5ft 11s 9 11 mph 1024mb 58f 58f
7:00pm 5ft 11s 11
mph
1024mb 58f 57f
6:00pm 5ft 10s 9 11 mph 1023.9mb 58f 57f
5:00pm 5ft 11s 9 11 mph 1023.7mb 58f 57f
4:00pm 5.5ft 10s 9 11 mph 1023.3mb 58f 57f
3:00pm 5ft 8s 9 11 mph 1023.1mb 58f 57f
2:00pm 6ft 10s 13 16 mph 1022.9mb 58f 56f
1:00pm 5.5ft 9s 9 13 mph 1022.9mb 58f 56f
12:00pm 6ft 9s 11 13 mph 1022.7mb 58f 56f
11:00am 5.5ft 9s 13 16 mph 1022.7mb 58f 56f
10:00am 6ft 10s 13 16 mph 1022.8mb 58f 56f
9:00am 6ft 10s 13 16 mph 1023mb 58f 56f
8:00am 6ft 9s 11 13 mph 1023.2mb 58f 56f
7:00am 6ft 11s 9 11 mph 1023.2mb 58f 57f
6:00am 6ft 10s 11 13 mph 1023.3mb 58f 56f
5:00am 6ft 10s 7 9 mph 1023mb 58f 57f
4:00am 6ft 10s 4 7 mph 1022.7mb 58f 57f
3:00am 6ft 10s 4 7 mph 1022.6mb 58f 57f
2:00am 6ft 10s 4 7 mph 1022.6mb 58f 57f
1:00am 6ft 10s 4 7 mph 1022.8mb 58f 57f
12:00am 5.5ft 9s 9
mph
1023mb 58f 58f
Sun 07/24 11:00pm 5.5ft 10s 7 9 mph 1023.1mb 58f 58f
10:00pm 5.5ft 9s 9 11 mph 1023.1mb 58f 57f
9:00pm 5ft 8s 9
mph
1023.2mb 58f 57f
8:00pm 5ft 9s 9 11 mph 1023.4mb 58f 56f
7:00pm 5ft 8s 9
mph
1023.2mb 58f 56f
6:00pm 5ft 8s 9 11 mph 1023mb 58f 56f
5:00pm 5ft 8s 11 13 mph 1023mb 58f 56f
4:00pm 5.5ft 8s 13 16 mph 1022.8mb 57f 56f
3:00pm 5ft 7s 11 13 mph 1022.4mb 57f 56f
2:00pm 5.5ft 7s 13 16 mph 1022.2mb 57f 56f
1:00pm 6ft 8s 13 18 mph 1021.8mb 57f 56f
12:00pm 5.5ft 8s 13 16 mph 1021.8mb 57f 56f
11:00am 5.5ft 8s 13 18 mph 1022mb 57f 56f
10:00am 5ft 8s 16 18 mph 1022.4mb 57f 56f
9:00am 5ft 7s 13 16 mph 1022.6mb 57f 57f
8:00am 5ft 7s 13 16 mph 1023.1mb 57f 57f
7:00am 5ft 7s 13 16 mph 1023.2mb 57f 57f
6:00am 5ft 7s 16 20 mph 1023.4mb 57f 57f
5:00am 5ft 7s 16 18 mph 1023.4mb 57f 57f
4:00am 5ft 6s 16 18 mph 1023.1mb 58f 57f
3:00am 5.5ft 7s 16 20 mph 1023.2mb 57f 57f
2:00am 5.5ft 7s 16 20 mph 1023mb 58f 57f
1:00am 5ft 6s 16 18 mph 1023.3mb 57f 57f
12:00am 5.5ft 7s 16 20 mph 1023.7mb 57f 57f
Sat 07/23 11:00pm 5.5ft 7s 16 20 mph 1024mb 57f 57f
10:00pm 5.5ft 7s 16 20 mph 1024mb 57f 57f
9:00pm 5.5ft 7s 18 20 mph 1024.2mb 57f 57f
8:00pm 5.5ft 7s 16 20 mph 1024.3mb 57f 56f
7:00pm 5.5ft 6s 18 20 mph 1024.3mb 57f 56f
6:00pm 5.5ft 7s 16 20 mph 1024.2mb 57f 56f
5:00pm 6ft 7s 16 20 mph 1024.2mb 57f 56f
4:00pm 6.5ft 7s 18 20 mph 1024mb 57f 56f
3:00pm 5.5ft 6s 18 22 mph 1023.6mb 57f 56f
2:00pm 6ft 6s 18 20 mph 1023.4mb 57f 55f
1:00pm 5.5ft 7s 18 22 mph 1023.3mb 57f 55f
12:00pm 5.5ft 6s 20 22 mph 1023.3mb 57f 55f
11:00am 5ft 6s 20 22 mph 1023.3mb 57f 56f
10:00am 5ft 8s 20 25 mph 1023.4mb 58f 56f
9:00am 5.5ft 15s 18 20 mph 1024mb 58f 56f
8:00am 5ft 6s 18 20 mph 1024.3mb 58f 56f
7:00am 5ft 14s 18 20 mph 1024.4mb 58f 56f
6:00am 5ft 14s 18 22 mph 1024.7mb 58f 56f
5:00am 5ft 8s 18 20 mph 1024.3mb 58f 56f
4:00am 5ft 15s 18 22 mph 1024.2mb 58f 57f
3:00am 5ft 8s 20 22 mph 1024.1mb 58f 57f
2:00am 5ft 8s 18 22 mph 1024.2mb 58f 57f
1:00am 5ft 8s 13 18 mph 1024.2mb 58f 57f
12:00am 5ft 8s 16 18 mph 1024.4mb 58f 57f
Fri 07/22 11:00pm 5ft 8s 18 20 mph 1024.3mb 58f 58f
10:00pm 5ft 8s 16 18 mph 1024.6mb 58f 58f
9:00pm 5ft 8s 13 16 mph 1024.7mb 58f 57f
8:00pm 4.5ft 9s 18 22 mph 1024.4mb 58f 58f
7:00pm 4.5ft 8s 16 18 mph 1024.4mb 58f 57f
6:00pm 4.5ft 8s 13 16 mph 1024.3mb 58f 56f
5:00pm 4.5ft 8s 18 20 mph 1024mb 58f 57f
4:00pm 4.5ft 9s 16 18 mph 1023.7mb 58f 57f